Ново-Пашково

Карта отелей и гостиниц, располагающихся рядом с аэропортом Ново-Пашково :

Ново-Пашково
Могилёв
Могилёвская область 53° 56' 43.3788" N, 30° 14' 45.78" E
Код аэродрома ИКАО
UMNM
Код аэродрома RU
УМНМ
Координаты
N53.94538° E030.24605°
Превышение над уровнем моря
185
Основная полоса
04/22
Курс магнитный
038,9/218,9
Длина основной ВПП
600
Ширина основной ВПП
60
Покрытие основной ВПП
Нетвёрдое (грунт)
Освещение ВПП
Нет
Тип: 
Аэродром
Класс аэродрома: 
Принадлежность: 
ДОСААФ
Статус: 
Действующий
Сайт: 
E-mail аэродрома: 
akviktoria@tut.by
Страна: 
Беларусь
Регион: 
Могилёвская область
Город: 
Могилёв
Дополнительная информация: 
Оператор: нет данных.

Найти трансфер

С помощью этой формы Вы можете найти трансфер из аэропорта Ново-Пашково в город, аэропорт или вокзал:

Погода в аэропортах:

Авиационная погода в аэропорту Новый

Регион: 
Погода METAR: 
UHHH 221800Z 19001MPS 4200 FU NSC M29/M32 Q1027 R23R/090060 NOSIG RMK QFE764/1019
Время наблюдения
2022-01-22T18:00:00Z
Температура C
-29.0
Точка росы
-32.0
Направление ветра
190
Скорость ветра (узлы)
2
Метео видимость
2.61
Облачность
CLR
Нижняя граница облачности (футы)
Явления погоды
FU
Условия полета
IFR
Аэропорт подробнее: 
CLR — нет облаков ниже 3000 м
FU – дым (видимость менее 10 км);

Авиационная погода в Москве - Остафьево

Погода METAR: 
UUMO 221800Z 10004MPS 2000 R07/2000U SN OVC008 M04/M05 Q1011 RESN R07/491030 NOSIG RMK QFE744/0992
Время наблюдения
2022-01-22T18:00:00Z
Температура C
-4.0
Точка росы
-5.0
Направление ветра
100
Скорость ветра (узлы)
8
Метео видимость
1.24
Облачность
OVC
Нижняя граница облачности (футы)
800
Явления погоды
SN
Условия полета
IFR
Аэропорт подробнее: 
OVC – сплошная облачность;
SN – снег;

Авиационная погода в Талды-Коргане

Регион: 
Погода METAR: 
UAAT 221139Z 25002MPS 210V320 2700 BR FEW001 SCT200 M09/M12 Q1022 NOSIG RMK QBB050 QFE715/0953
Время наблюдения
2022-01-22T11:39:00Z
Температура C
-9.0
Точка росы
-12.0
Направление ветра
250
Скорость ветра (узлы)
4
Метео видимость
1.68
Облачность
FEW
SCT
Нижняя граница облачности (футы)
100
20000
Явления погоды
BR
Условия полета
IFR
Аэропорт подробнее: 
FEW – незначительная облачность; SCT – разбросанная отдельная облачность;
BR – дымка (видимость от 1 до 9 км);

Авиационная погода в Минске

Регион: 
Погода METAR: 
UMMS 221743Z 35008G12MPS 2800 -SHSN BLSN BKN015CB BKN041 M04/M05 Q1012 NOSIG
Время наблюдения
2022-01-22T17:43:00Z
Температура C
-4.0
Точка росы
-5.0
Направление ветра
350
Скорость ветра (узлы)
16
Метео видимость
1.74
Облачность
BKN
BKN
Нижняя граница облачности (футы)
1500
4100
Явления погоды
-SHSN BLSN
Условия полета
IFR
Аэропорт подробнее: 
BKN – значительная (рассеянная, разорванная) облачность;
-SHSN - слабый ливневой снег, BLSN – метель низовая или общая;